createdAt,value
2022-11-30T00:01:35.799Z,3.67
2022-11-30T00:04:37.681Z,2.70
2022-11-30T00:07:39.756Z,2.80
2022-11-30T00:10:42.270Z,8.13
2022-11-30T00:13:44.410Z,4.38
2022-11-30T00:16:46.210Z,1.92
2022-11-30T00:19:48.061Z,2.65
2022-11-30T00:22:49.972Z,1.98
2022-11-30T00:25:51.851Z,1.63
2022-11-30T00:28:54.266Z,2.25
2022-11-30T00:31:55.966Z,1.52
2022-11-30T00:34:58.064Z,1.27
2022-11-30T00:38:02.678Z,0.98
2022-11-30T00:41:04.780Z,1.27
2022-11-30T00:44:06.609Z,1.15
2022-11-30T00:47:08.523Z,2.60
2022-11-30T00:50:10.839Z,3.15
2022-11-30T00:53:12.701Z,3.25
2022-11-30T00:56:14.839Z,4.18
2022-11-30T00:59:16.749Z,4.25
2022-11-30T01:02:18.646Z,3.15
2022-11-30T01:05:20.524Z,3.58
2022-11-30T01:08:22.388Z,3.40
2022-11-30T01:11:27.288Z,3.90
2022-11-30T01:14:28.984Z,4.82
2022-11-30T01:17:30.713Z,4.10
2022-11-30T01:20:32.512Z,4.18
2022-11-30T01:23:34.688Z,3.67
2022-11-30T01:26:36.652Z,4.40
2022-11-30T01:29:39.144Z,6.32
2022-11-30T01:32:40.929Z,5.18
2022-11-30T01:35:42.621Z,5.05
2022-11-30T01:38:53.316Z,5.60
2022-11-30T01:41:55.409Z,4.75
2022-11-30T01:44:58.794Z,5.38
2022-11-30T01:48:00.720Z,4.78
2022-11-30T01:51:02.601Z,5.45
2022-11-30T01:54:06.751Z,4.82
2022-11-30T01:57:13.926Z,4.20
2022-11-30T02:03:28.178Z,4.13
2022-11-30T02:06:31.024Z,3.90
2022-11-30T02:09:43.588Z,4.30
2022-11-30T02:12:59.520Z,3.85
2022-11-30T02:16:04.660Z,4.35
2022-11-30T02:19:10.096Z,5.55
2022-11-30T02:22:35.416Z,5.55
2022-11-30T02:25:46.596Z,4.57
2022-11-30T02:28:56.173Z,5.18
2022-11-30T02:32:40.546Z,4.63
2022-11-30T02:35:50.243Z,5.80
2022-11-30T02:38:55.711Z,5.45
2022-11-30T02:41:57.551Z,4.40
2022-11-30T02:44:59.329Z,5.72
2022-11-30T02:48:11.789Z,5.63
2022-11-30T02:51:18.655Z,5.28
2022-11-30T02:54:20.316Z,4.63
2022-11-30T02:57:22.153Z,4.63
2022-11-30T03:00:23.972Z,4.82
2022-11-30T03:03:25.730Z,4.43
2022-11-30T03:06:27.645Z,4.50
2022-11-30T03:09:29.533Z,4.30
2022-11-30T03:12:31.597Z,5.03
2022-11-30T03:15:33.553Z,4.18
2022-11-30T03:18:35.491Z,3.85
2022-11-30T03:21:37.221Z,4.78
2022-11-30T03:24:38.957Z,4.82
2022-11-30T03:27:40.656Z,3.22
2022-11-30T03:30:48.865Z,4.15
2022-11-30T03:33:50.732Z,3.50
2022-11-30T03:36:52.769Z,3.35
2022-11-30T03:39:58.133Z,4.88
2022-11-30T03:43:00.153Z,3.67
2022-11-30T03:46:02.000Z,2.67
2022-11-30T03:49:03.786Z,4.25
2022-11-30T03:52:05.563Z,4.28
2022-11-30T03:55:07.978Z,4.18
2022-11-30T03:58:09.821Z,3.20
2022-11-30T04:01:16.978Z,3.22
2022-11-30T04:07:20.667Z,4.32
2022-11-30T04:10:23.921Z,4.55
2022-11-30T04:13:26.230Z,3.00
2022-11-30T04:16:28.046Z,3.35
2022-11-30T04:19:30.030Z,4.50
2022-11-30T04:22:31.750Z,3.90
2022-11-30T04:25:33.527Z,5.22
2022-11-30T04:28:35.886Z,5.10
2022-11-30T04:31:37.827Z,3.70
2022-11-30T04:34:39.551Z,5.28
2022-11-30T04:37:41.234Z,6.63
2022-11-30T04:40:43.732Z,2.78
2022-11-30T04:43:45.613Z,3.95
2022-11-30T04:46:47.468Z,3.90
2022-11-30T04:49:49.294Z,3.92
2022-11-30T04:52:51.080Z,3.72
2022-11-30T04:55:52.812Z,3.22
2022-11-30T04:58:54.548Z,4.70
2022-11-30T05:01:56.521Z,3.13
2022-11-30T05:04:58.404Z,3.17
2022-11-30T05:08:00.385Z,4.13
2022-11-30T05:11:02.345Z,4.38
2022-11-30T05:14:04.749Z,3.90
2022-11-30T05:17:06.511Z,3.78
2022-11-30T05:20:08.796Z,4.68
2022-11-30T05:23:10.615Z,5.57
2022-11-30T05:26:12.557Z,5.07
2022-11-30T05:29:14.373Z,4.63
2022-11-30T05:32:16.092Z,7.60
2022-11-30T05:35:17.992Z,5.25
2022-11-30T05:38:19.804Z,4.45
2022-11-30T05:41:21.691Z,5.90
2022-11-30T05:44:23.470Z,4.70
2022-11-30T05:47:29.114Z,5.30
2022-11-30T05:50:31.522Z,4.85
2022-11-30T05:53:33.657Z,4.13
2022-11-30T05:56:38.089Z,4.43
2022-11-30T05:59:40.901Z,4.78
2022-11-30T06:02:42.812Z,5.78
2022-11-30T06:05:44.983Z,5.18
2022-11-30T06:08:48.073Z,5.55
2022-11-30T06:11:50.575Z,4.78
2022-11-30T06:14:52.720Z,4.38
2022-11-30T06:17:56.354Z,5.45
2022-11-30T06:21:06.129Z,5.18
2022-11-30T06:24:08.675Z,4.57
2022-11-30T06:27:10.590Z,3.95
2022-11-30T06:30:13.306Z,5.40
2022-11-30T06:33:15.144Z,5.70
2022-11-30T06:36:23.839Z,4.22
2022-11-30T06:39:50.189Z,3.60
2022-11-30T06:42:47.788Z,5.45
2022-11-30T06:45:50.326Z,4.53
2022-11-30T06:48:56.751Z,4.93
2022-11-30T06:51:59.119Z,3.25
2022-11-30T06:55:01.618Z,3.95
2022-11-30T06:58:08.436Z,3.72
2022-11-30T07:01:13.608Z,5.32
2022-11-30T07:04:15.795Z,4.18
2022-11-30T07:07:18.175Z,4.28
2022-11-30T07:10:22.978Z,3.72
2022-11-30T07:13:26.078Z,4.18
2022-11-30T07:16:29.846Z,4.22
2022-11-30T07:19:36.562Z,4.65
2022-11-30T07:22:38.873Z,4.30
2022-11-30T07:25:59.282Z,5.72
2022-11-30T07:29:05.406Z,3.92
2022-11-30T07:32:07.718Z,4.20
2022-11-30T07:35:09.657Z,4.82
2022-11-30T07:38:12.225Z,4.35
2022-11-30T07:41:16.679Z,4.93
2022-11-30T07:44:18.868Z,5.78
2022-11-30T07:47:20.770Z,5.85
2022-11-30T07:50:22.620Z,5.63
2022-11-30T07:53:24.658Z,5.47
2022-11-30T07:56:27.929Z,4.65
2022-11-30T07:59:29.936Z,4.20
2022-11-30T08:02:31.914Z,5.75
2022-11-30T08:05:33.794Z,7.30
2022-11-30T08:08:37.934Z,5.78
2022-11-30T08:11:39.725Z,4.97
2022-11-30T08:15:17.589Z,5.35
2022-11-30T08:18:07.177Z,4.65
2022-11-30T08:21:11.159Z,3.88
2022-11-30T08:24:16.050Z,3.78
2022-11-30T08:27:18.078Z,3.38
2022-11-30T08:30:19.855Z,5.82
2022-11-30T08:33:21.759Z,4.57
2022-11-30T08:36:25.207Z,4.35
2022-11-30T08:39:28.753Z,3.08
2022-11-30T08:42:31.245Z,3.63
2022-11-30T08:45:33.114Z,4.43
2022-11-30T08:48:35.920Z,3.85
2022-11-30T08:51:54.055Z,3.47
2022-11-30T08:54:59.755Z,4.50
2022-11-30T08:58:01.822Z,4.18
2022-11-30T09:01:11.255Z,3.22
2022-11-30T09:07:15.580Z,4.00
2022-11-30T09:10:17.895Z,5.43
2022-11-30T09:13:19.753Z,6.03
2022-11-30T09:16:22.681Z,4.20
2022-11-30T09:19:25.537Z,4.97
2022-11-30T09:22:29.072Z,4.78
2022-11-30T09:25:31.136Z,4.75
2022-11-30T09:28:35.523Z,4.45
2022-11-30T09:31:37.434Z,4.68
2022-11-30T09:34:39.400Z,4.93
2022-11-30T09:37:41.782Z,4.32
2022-11-30T09:40:44.000Z,4.53
2022-11-30T09:43:46.335Z,5.22
2022-11-30T09:46:56.341Z,4.72
2022-11-30T09:50:03.808Z,5.47
2022-11-30T09:53:12.536Z,4.13
2022-11-30T09:56:28.643Z,5.78
2022-11-30T09:59:33.173Z,4.65
2022-11-30T10:02:41.226Z,5.70
2022-11-30T10:06:04.021Z,4.88
2022-11-30T10:09:29.361Z,5.15
2022-11-30T10:12:40.297Z,4.63
2022-11-30T10:15:57.861Z,4.63
2022-11-30T10:22:11.972Z,4.95
2022-11-30T10:25:27.270Z,4.60
2022-11-30T10:28:48.830Z,4.55
2022-11-30T10:31:57.329Z,5.22
2022-11-30T10:35:16.954Z,6.03
2022-11-30T10:38:32.529Z,5.47
2022-11-30T10:41:41.571Z,4.50
2022-11-30T10:44:46.939Z,3.90
2022-11-30T10:47:53.817Z,7.05
2022-11-30T10:50:55.814Z,5.95
2022-11-30T10:53:58.390Z,5.50
2022-11-30T10:57:02.734Z,4.03
2022-11-30T11:00:07.299Z,6.28
2022-11-30T11:03:26.318Z,5.38
2022-11-30T11:06:28.588Z,5.85
2022-11-30T11:09:46.995Z,5.47
2022-11-30T11:12:52.169Z,5.13
2022-11-30T11:15:59.638Z,5.20
2022-11-30T11:19:01.951Z,5.13
2022-11-30T11:22:25.352Z,5.78
2022-11-30T11:25:37.468Z,5.47
2022-11-30T11:28:45.089Z,5.38
2022-11-30T11:31:47.824Z,5.70
2022-11-30T11:34:51.510Z,6.47
2022-11-30T11:37:53.921Z,6.78
2022-11-30T11:41:07.668Z,5.35
2022-11-30T11:44:09.552Z,5.25
2022-11-30T11:47:24.595Z,6.28
2022-11-30T11:51:04.903Z,5.55
2022-11-30T11:53:56.837Z,6.55
2022-11-30T11:56:59.121Z,5.47
2022-11-30T12:00:18.113Z,5.15
2022-11-30T12:03:26.610Z,4.30
2022-11-30T12:06:30.078Z,5.32
2022-11-30T12:09:37.227Z,4.80
2022-11-30T12:15:53.270Z,4.15
2022-11-30T12:19:15.009Z,4.93
2022-11-30T12:22:36.003Z,3.80
2022-11-30T12:25:46.678Z,3.80
2022-11-30T12:29:03.954Z,4.20
2022-11-30T12:32:27.764Z,4.13
2022-11-30T12:35:53.989Z,4.18
2022-11-30T12:38:59.698Z,3.58
2022-11-30T12:42:12.103Z,5.47
2022-11-30T12:45:24.409Z,4.82
2022-11-30T12:48:38.774Z,4.53
2022-11-30T12:52:10.045Z,4.55
2022-11-30T12:55:27.181Z,5.05
2022-11-30T12:58:38.293Z,4.75
2022-11-30T13:01:40.585Z,5.53
2022-11-30T13:04:43.960Z,4.18
2022-11-30T13:08:14.057Z,5.45
2022-11-30T13:11:21.270Z,5.28
2022-11-30T13:17:26.959Z,5.53
2022-11-30T13:20:41.432Z,4.45
2022-11-30T13:24:13.941Z,4.82
2022-11-30T13:27:28.618Z,4.40
2022-11-30T13:30:45.351Z,5.13
2022-11-30T13:33:48.461Z,5.90
2022-11-30T13:36:50.451Z,4.30
2022-11-30T13:39:59.548Z,5.03
2022-11-30T13:43:01.683Z,5.47
2022-11-30T13:46:24.323Z,5.03
2022-11-30T13:49:35.793Z,4.50
2022-11-30T13:53:17.377Z,5.65
2022-11-30T13:56:19.518Z,4.32
2022-11-30T13:59:24.614Z,5.40
2022-11-30T14:02:32.906Z,5.25
2022-11-30T14:06:00.321Z,4.70
2022-11-30T14:09:02.294Z,4.85
2022-11-30T14:12:37.362Z,6.15
2022-11-30T14:15:39.694Z,4.25
2022-11-30T14:18:43.863Z,5.13
2022-11-30T14:21:45.916Z,4.43
2022-11-30T14:24:49.407Z,5.72
2022-11-30T14:27:53.358Z,4.65
2022-11-30T14:30:56.284Z,3.53
2022-11-30T14:34:03.141Z,4.75
2022-11-30T14:37:26.524Z,4.38
2022-11-30T14:40:31.065Z,4.50
2022-11-30T14:43:33.395Z,4.65
2022-11-30T14:46:36.149Z,3.42
2022-11-30T14:49:46.154Z,4.55
2022-11-30T14:52:51.222Z,5.05
2022-11-30T14:56:05.882Z,3.95
2022-11-30T14:59:26.503Z,4.30
2022-11-30T15:02:36.474Z,2.67
2022-11-30T15:05:41.840Z,3.08
2022-11-30T15:08:50.510Z,3.53
2022-11-30T15:11:53.451Z,3.88
2022-11-30T15:15:14.248Z,3.65
2022-11-30T15:18:19.273Z,3.20
2022-11-30T15:21:24.483Z,4.13
2022-11-30T15:24:29.690Z,3.08
2022-11-30T15:27:32.360Z,2.72
2022-11-30T15:30:39.328Z,4.07
2022-11-30T15:33:43.862Z,4.25
2022-11-30T15:36:46.445Z,4.50
2022-11-30T15:39:52.692Z,3.97
2022-11-30T15:42:54.927Z,5.05
2022-11-30T15:45:59.520Z,5.20
2022-11-30T15:49:25.750Z,4.40
2022-11-30T15:52:30.122Z,4.47
2022-11-30T15:55:45.598Z,5.78
2022-11-30T15:59:05.383Z,5.47
2022-11-30T16:02:25.625Z,5.38
2022-11-30T16:05:28.232Z,5.82
2022-11-30T16:08:30.254Z,5.47
2022-11-30T16:11:34.112Z,5.43
2022-11-30T16:14:36.088Z,5.05
2022-11-30T16:17:37.973Z,5.57
2022-11-30T16:20:42.125Z,4.45
2022-11-30T16:23:44.973Z,5.40
2022-11-30T16:26:51.625Z,5.50
2022-11-30T16:33:00.078Z,5.15
2022-11-30T16:36:10.017Z,5.80
2022-11-30T16:39:13.077Z,5.47
2022-11-30T16:42:15.758Z,5.68
2022-11-30T16:45:22.912Z,5.93
2022-11-30T16:51:27.425Z,4.93
2022-11-30T16:54:32.615Z,6.07
2022-11-30T16:57:34.720Z,5.72
2022-11-30T17:00:39.992Z,6.75
2022-11-30T17:03:47.366Z,5.63
2022-11-30T17:06:51.129Z,6.38
2022-11-30T17:09:54.091Z,5.72
2022-11-30T17:12:56.689Z,5.28
2022-11-30T17:15:58.686Z,6.03
2022-11-30T17:19:01.704Z,5.60
2022-11-30T17:22:03.688Z,4.97
2022-11-30T17:25:09.057Z,5.65
2022-11-30T17:28:11.097Z,4.82
2022-11-30T17:31:13.599Z,5.03
2022-11-30T17:34:15.843Z,4.15
2022-11-30T17:37:17.826Z,4.32
2022-11-30T17:40:20.336Z,4.05
2022-11-30T17:43:23.053Z,3.90
2022-11-30T17:46:25.023Z,4.43
2022-11-30T17:49:27.446Z,5.32
2022-11-30T17:52:29.692Z,4.93
2022-11-30T17:55:33.562Z,5.75
2022-11-30T17:58:43.485Z,5.18
2022-11-30T18:01:46.400Z,5.32
2022-11-30T18:04:48.617Z,4.82
2022-11-30T18:07:50.976Z,4.22
2022-11-30T18:10:53.204Z,4.70
2022-11-30T18:13:57.485Z,4.20
2022-11-30T18:16:59.418Z,4.40
2022-11-30T18:20:01.397Z,4.78
2022-11-30T18:23:03.479Z,3.70
2022-11-30T18:26:07.683Z,4.88
2022-11-30T18:29:10.271Z,3.83
2022-11-30T18:32:13.121Z,4.28
2022-11-30T18:35:16.185Z,4.57
2022-11-30T18:38:18.992Z,4.93
2022-11-30T18:41:21.614Z,4.10
2022-11-30T18:44:23.862Z,4.05
2022-11-30T18:47:26.438Z,4.28
2022-11-30T18:50:30.065Z,4.93
2022-11-30T18:53:32.175Z,4.35
2022-11-30T18:56:37.998Z,3.83
2022-11-30T18:59:40.322Z,5.55
2022-11-30T19:02:42.648Z,5.32
2022-11-30T19:05:46.364Z,4.50
2022-11-30T19:08:48.599Z,5.28
2022-11-30T19:11:51.402Z,4.95
2022-11-30T19:14:54.454Z,5.03
2022-11-30T19:17:57.912Z,5.97
2022-11-30T19:21:01.644Z,5.65
2022-11-30T19:24:04.789Z,7.70
2022-11-30T19:27:07.406Z,4.55
2022-11-30T19:30:10.815Z,6.10
2022-11-30T19:33:14.380Z,5.50
2022-11-30T19:36:22.485Z,5.63
2022-11-30T19:39:24.861Z,5.25
2022-11-30T19:42:30.624Z,5.30
2022-11-30T19:45:35.001Z,4.95
2022-11-30T19:48:38.362Z,5.63
2022-11-30T19:51:41.315Z,5.07
2022-11-30T19:54:44.332Z,5.05
2022-11-30T19:57:47.070Z,6.30
2022-11-30T20:00:50.339Z,6.47
2022-11-30T20:03:54.244Z,5.88
2022-11-30T20:06:56.377Z,6.55
2022-11-30T20:09:59.264Z,5.70
2022-11-30T20:13:01.532Z,6.15
2022-11-30T20:16:15.357Z,6.22
2022-11-30T20:19:18.140Z,5.72
2022-11-30T20:22:20.564Z,5.72
2022-11-30T20:25:23.093Z,5.55
2022-11-30T20:28:25.654Z,5.30
2022-11-30T20:31:29.211Z,4.88
2022-11-30T20:34:35.236Z,5.53
2022-11-30T20:37:39.271Z,6.00
2022-11-30T20:40:47.003Z,7.22
2022-11-30T20:43:49.849Z,5.22
2022-11-30T20:46:52.037Z,6.60
2022-11-30T20:49:54.480Z,7.10
2022-11-30T20:52:58.742Z,5.95
2022-11-30T20:56:01.464Z,5.65
2022-11-30T20:59:06.482Z,6.45
2022-11-30T21:02:10.579Z,6.18
2022-11-30T21:05:13.133Z,6.70
2022-11-30T21:08:15.268Z,6.35
2022-11-30T21:11:20.102Z,6.63
2022-11-30T21:14:22.455Z,6.63
2022-11-30T21:17:25.475Z,5.95
2022-11-30T21:20:27.515Z,5.15
2022-11-30T21:23:29.883Z,6.88
2022-11-30T21:26:38.198Z,6.65
2022-11-30T21:29:40.880Z,6.05
2022-11-30T21:32:43.174Z,7.28
2022-11-30T21:35:45.392Z,5.75
2022-11-30T21:38:47.726Z,5.95
2022-11-30T21:41:49.650Z,7.75
2022-11-30T21:44:52.494Z,7.22
2022-11-30T21:47:55.040Z,5.93
2022-11-30T21:51:18.193Z,7.25
2022-11-30T21:54:20.634Z,6.32
2022-11-30T21:57:23.224Z,7.28
2022-11-30T22:00:25.662Z,5.32
2022-11-30T22:03:27.985Z,6.70
2022-11-30T22:06:35.047Z,6.22
2022-11-30T22:09:37.206Z,5.65
2022-11-30T22:12:41.404Z,6.65
2022-11-30T22:15:43.459Z,6.45
2022-11-30T22:18:46.861Z,5.85
2022-11-30T22:21:50.412Z,6.40
2022-11-30T22:24:52.967Z,6.20
2022-11-30T22:27:55.225Z,4.85
2022-11-30T22:30:57.292Z,5.53
2022-11-30T22:33:59.707Z,7.18
2022-11-30T22:37:01.702Z,5.30
2022-11-30T22:40:04.705Z,5.15
2022-11-30T22:43:07.193Z,6.28
2022-11-30T22:46:14.736Z,6.32
2022-11-30T22:49:21.180Z,6.70
2022-11-30T22:55:48.265Z,5.03
2022-11-30T22:58:54.059Z,6.43
2022-11-30T23:01:56.368Z,6.55
2022-11-30T23:04:58.394Z,6.28
2022-11-30T23:08:00.534Z,7.35
2022-11-30T23:11:09.369Z,6.43
2022-11-30T23:14:12.937Z,6.47
2022-11-30T23:17:17.424Z,6.38
2022-11-30T23:20:20.257Z,7.20
2022-11-30T23:23:23.366Z,6.60
2022-11-30T23:26:27.692Z,6.93
2022-11-30T23:29:30.589Z,6.70
2022-11-30T23:32:32.432Z,7.18
2022-11-30T23:35:34.572Z,7.15
2022-11-30T23:38:36.704Z,8.23
2022-11-30T23:41:38.781Z,8.75
2022-11-30T23:44:40.944Z,7.68
2022-11-30T23:47:42.686Z,7.70
2022-11-30T23:50:44.824Z,10.45
2022-11-30T23:53:46.584Z,8.80
2022-11-30T23:56:48.704Z,9.40
2022-11-30T23:59:50.718Z,8.50
